createdAt,value
2023-04-27T12:21:50.264Z,41.70
2023-04-27T12:24:17.475Z,41.10
2023-04-27T12:26:44.758Z,40.80
2023-04-27T12:29:12.342Z,41.30
2023-04-27T12:31:42.614Z,40.80
2023-04-27T12:34:15.522Z,41.50
2023-04-27T12:36:46.132Z,41.30
2023-04-27T12:39:17.363Z,40.80
2023-04-27T12:41:45.488Z,40.40
2023-04-27T12:44:13.439Z,40.20
2023-04-27T12:46:44.184Z,39.80
2023-04-27T12:49:12.545Z,40.10
2023-04-27T12:51:39.742Z,39.60
2023-04-27T12:54:17.475Z,39.50
2023-04-27T12:56:49.183Z,39.10
2023-04-27T12:59:17.144Z,39.40
2023-04-27T13:01:46.099Z,39.30
2023-04-27T13:04:20.319Z,39.60
2023-04-27T13:06:48.388Z,38.60
2023-04-27T13:09:16.748Z,38.70
2023-04-27T13:11:43.937Z,38.20
2023-04-27T13:14:13.463Z,38.70
2023-04-27T13:16:42.814Z,39.00
2023-04-27T13:19:10.109Z,38.90
2023-04-27T13:21:37.689Z,38.10
2023-04-27T13:24:05.096Z,38.10
2023-04-27T13:26:32.276Z,38.20
2023-04-27T13:28:59.481Z,38.20
2023-04-27T13:31:26.609Z,37.90
2023-04-27T13:33:53.990Z,38.10
2023-04-27T13:36:21.182Z,37.70
2023-04-27T13:38:48.172Z,37.40
2023-04-27T13:41:15.051Z,37.30
2023-04-27T13:43:49.512Z,37.00
2023-04-27T13:46:19.558Z,36.80
2023-04-27T13:48:47.105Z,36.60
2023-04-27T13:51:14.334Z,36.20
2023-04-27T13:53:43.459Z,36.40
2023-04-27T13:56:13.823Z,36.00
2023-04-27T13:58:42.013Z,36.30
2023-04-27T14:01:08.904Z,36.60
2023-04-27T14:03:37.126Z,36.20
2023-04-27T14:06:04.453Z,36.40
2023-04-27T14:08:31.735Z,36.40
2023-04-27T14:10:58.854Z,35.80
2023-04-27T14:13:26.008Z,35.40
2023-04-27T14:15:53.068Z,35.30
2023-04-27T14:18:20.149Z,35.70
2023-04-27T14:20:47.532Z,34.90
2023-04-27T14:23:15.889Z,34.80
2023-04-27T14:25:42.976Z,35.10
2023-04-27T14:28:12.229Z,35.10
2023-04-27T14:30:39.263Z,34.80
2023-04-27T14:33:06.920Z,35.20
2023-04-27T14:35:40.182Z,34.70
2023-04-27T14:38:08.714Z,34.80
2023-04-27T14:40:38.205Z,35.00
2023-04-27T14:43:05.256Z,35.00
2023-04-27T14:45:43.688Z,35.30
2023-04-27T14:48:15.123Z,35.30
2023-04-27T14:50:42.560Z,34.50
2023-04-27T14:53:16.162Z,34.20
2023-04-27T14:55:46.046Z,34.50
2023-04-27T14:58:13.380Z,34.50
2023-04-27T15:00:40.529Z,33.90
2023-04-27T15:03:07.981Z,33.90
2023-04-27T15:05:34.882Z,33.50
2023-04-27T15:08:01.861Z,33.40
2023-04-27T15:10:28.963Z,33.60
2023-04-27T15:12:55.912Z,34.00
2023-04-27T15:15:26.087Z,34.10
2023-04-27T15:17:53.625Z,34.50
2023-04-27T15:20:20.577Z,34.90
2023-04-27T15:22:47.641Z,34.80
2023-04-27T15:25:14.913Z,35.00
2023-04-27T15:27:41.923Z,35.00
2023-04-27T15:30:09.551Z,34.70
2023-04-27T15:32:39.656Z,34.50
2023-04-27T15:35:10.138Z,34.70
2023-04-27T15:37:40.477Z,34.20
2023-04-27T15:40:08.827Z,34.00
2023-04-27T15:42:38.357Z,33.90
2023-04-27T15:45:07.076Z,33.70
2023-04-27T15:47:43.607Z,34.00
2023-04-27T15:50:12.472Z,34.10
2023-04-27T15:52:39.476Z,34.10
2023-04-27T15:55:09.830Z,34.00
2023-04-27T15:57:37.808Z,34.00
2023-04-27T16:00:10.479Z,34.30
2023-04-27T16:02:40.996Z,34.40
2023-04-27T16:05:11.174Z,34.50
2023-04-27T16:07:43.016Z,34.70
2023-04-27T16:10:11.259Z,34.40
2023-04-27T16:12:42.253Z,34.40
2023-04-27T16:15:12.592Z,34.50
2023-04-27T16:17:40.032Z,34.40
2023-04-27T16:20:07.841Z,34.30
2023-04-27T16:22:37.901Z,34.20
2023-04-27T16:25:13.245Z,34.00
2023-04-27T16:27:40.982Z,33.70
2023-04-27T16:30:13.201Z,33.70
2023-04-27T16:32:40.314Z,33.70
2023-04-27T16:35:08.413Z,33.10
2023-04-27T16:37:42.989Z,32.60
2023-04-27T16:40:10.584Z,32.90
2023-04-27T16:42:40.158Z,33.30
2023-04-27T16:45:09.855Z,33.80
2023-04-27T16:47:42.094Z,33.90
2023-04-27T16:50:09.547Z,33.50
2023-04-27T16:52:38.443Z,34.30
2023-04-27T16:55:06.359Z,34.10
2023-04-27T16:57:33.213Z,34.50
2023-04-27T17:00:03.473Z,34.50
2023-04-27T17:02:31.146Z,35.00
2023-04-27T17:04:59.608Z,35.20
2023-04-27T17:07:28.679Z,35.70
2023-04-27T17:09:56.353Z,35.90
2023-04-27T17:12:23.480Z,36.30
2023-04-27T17:14:50.767Z,36.70
2023-04-27T17:17:24.174Z,36.90
2023-04-27T17:19:51.611Z,37.00
2023-04-27T18:09:48.349Z,41.60
2023-04-27T18:12:16.744Z,41.90
2023-04-27T18:14:43.671Z,42.10
2023-04-27T18:17:10.939Z,41.60
2023-04-27T18:19:41.027Z,41.80
2023-04-27T18:22:08.081Z,42.40
2023-04-27T18:24:44.710Z,42.20
2023-04-27T18:27:20.459Z,42.10
2023-04-27T18:29:50.373Z,42.10
2023-04-27T18:32:20.250Z,42.50
2023-04-27T18:34:47.434Z,42.50
2023-04-27T18:37:15.122Z,42.60
2023-04-27T18:39:42.423Z,42.40
2023-04-27T18:42:11.346Z,42.70
2023-04-27T18:44:45.206Z,43.10
2023-04-27T18:47:15.334Z,43.20
2023-04-27T18:49:42.712Z,43.30
2023-04-27T18:52:11.942Z,43.40
2023-04-27T18:54:39.432Z,43.50
2023-04-27T18:57:12.757Z,43.70
2023-04-27T18:59:49.007Z,43.70
2023-04-27T19:02:16.365Z,43.90
2023-04-27T19:05:01.544Z,43.80
2023-04-27T19:07:43.750Z,43.60
2023-04-27T19:10:14.381Z,43.60
2023-04-27T19:12:44.224Z,44.20
2023-04-27T19:15:12.240Z,44.40
2023-04-27T19:17:40.655Z,44.30
2023-04-27T19:20:11.789Z,44.70
2023-04-27T19:22:41.912Z,44.50
2023-04-27T19:25:10.041Z,44.60
2023-04-27T19:27:42.827Z,44.40
2023-04-27T19:30:18.672Z,44.70
2023-04-27T19:32:47.580Z,45.00
2023-04-27T19:35:15.122Z,44.90
2023-04-27T19:37:48.632Z,44.60
2023-04-27T19:40:23.564Z,44.90
2023-04-27T19:42:52.089Z,44.90
2023-04-27T19:45:23.250Z,44.90
2023-04-27T19:47:50.646Z,45.30
2023-04-27T19:50:18.204Z,45.30
2023-04-27T19:52:45.761Z,45.20
2023-04-27T19:55:13.707Z,45.50
2023-04-27T19:57:45.485Z,45.70
2023-04-27T20:00:16.470Z,45.30
2023-04-27T20:02:43.858Z,45.70
2023-04-27T20:05:12.800Z,45.40
2023-04-27T20:07:41.137Z,45.80
2023-04-27T20:10:09.749Z,46.00
2023-04-27T20:12:52.038Z,45.80
2023-04-27T20:15:22.557Z,45.50
2023-04-27T20:17:49.879Z,45.20
2023-04-27T20:20:19.650Z,45.20
2023-04-27T20:22:46.884Z,45.50
2023-04-27T20:25:14.915Z,45.60
2023-04-27T20:27:42.270Z,45.80
2023-04-27T20:30:09.993Z,46.00
2023-04-27T20:32:41.769Z,46.50
2023-04-27T20:35:15.682Z,46.00
2023-04-27T20:37:43.919Z,46.60
2023-04-27T20:40:14.430Z,46.70
2023-04-27T20:42:42.642Z,46.10
2023-04-27T20:45:11.758Z,46.10
2023-04-27T20:47:38.882Z,46.40
2023-04-27T20:50:06.966Z,46.30
2023-04-27T20:52:35.764Z,46.50
2023-04-27T20:55:09.669Z,46.20
2023-04-27T20:58:21.374Z,46.70
2023-04-27T21:00:52.615Z,46.50
2023-04-27T21:03:20.085Z,46.50
2023-04-27T21:05:49.103Z,46.50
2023-04-27T21:08:17.165Z,46.90
2023-04-27T21:10:46.763Z,46.90
2023-04-27T21:13:13.945Z,47.00
2023-04-27T21:15:41.050Z,47.30
2023-04-27T21:18:18.886Z,47.10
2023-04-27T21:20:50.052Z,47.00
2023-04-27T21:23:17.725Z,47.40
2023-04-27T21:25:46.196Z,47.30
2023-04-27T21:28:13.531Z,47.30
2023-04-27T21:30:40.989Z,47.70
2023-04-27T21:33:07.895Z,47.60
2023-04-27T21:35:34.988Z,47.70
2023-04-27T21:38:02.330Z,48.00
2023-04-27T21:40:29.415Z,48.10
2023-04-27T21:42:56.549Z,48.10
2023-04-27T21:45:24.012Z,48.00
2023-04-27T21:47:51.148Z,48.10
2023-04-27T21:50:19.626Z,48.00
2023-04-27T21:52:46.935Z,47.60
2023-04-27T21:55:13.880Z,47.60
2023-04-27T21:57:40.948Z,47.90
2023-04-27T22:00:18.884Z,47.70
2023-04-27T22:02:46.105Z,47.20
2023-04-27T22:05:14.285Z,47.90
2023-04-27T22:07:41.655Z,47.60
2023-04-27T22:10:08.979Z,47.90
2023-04-27T22:12:36.194Z,48.10
2023-04-27T22:15:04.911Z,47.90
2023-04-27T22:17:31.908Z,47.70
2023-04-27T22:19:59.181Z,48.00
2023-04-27T22:22:26.590Z,48.10
2023-04-27T22:24:53.642Z,48.10
2023-04-27T22:27:21.523Z,48.30
2023-04-27T22:29:48.425Z,47.90
2023-04-27T22:32:17.552Z,48.30
2023-04-27T22:34:45.497Z,48.40
2023-04-27T22:37:12.829Z,48.10
2023-04-27T22:39:43.404Z,48.10
2023-04-27T22:42:10.738Z,48.30
2023-04-27T22:44:38.026Z,48.10
2023-04-27T22:47:05.969Z,48.20
2023-04-27T22:49:34.570Z,48.20
2023-04-27T22:52:02.066Z,48.50
2023-04-27T22:54:29.120Z,48.30
2023-04-27T22:56:57.477Z,48.40
2023-04-27T22:59:25.078Z,48.60
2023-04-27T23:01:52.357Z,48.90
2023-04-27T23:04:20.213Z,49.00
2023-04-27T23:06:48.089Z,49.10
2023-04-27T23:09:15.240Z,49.20
2023-04-27T23:11:46.124Z,49.30
2023-04-27T23:14:14.419Z,49.20
2023-04-27T23:16:45.330Z,49.40
2023-04-27T23:19:13.284Z,49.30
2023-04-27T23:21:46.566Z,49.40
2023-04-27T23:24:13.962Z,49.20
2023-04-27T23:26:43.583Z,49.30
2023-04-27T23:29:11.497Z,49.30
2023-04-27T23:31:38.732Z,49.50
2023-04-27T23:34:05.925Z,49.20
2023-04-27T23:36:33.340Z,49.50
2023-04-27T23:39:00.496Z,49.40
2023-04-27T23:41:27.537Z,49.60
2023-04-27T23:43:54.684Z,49.50
2023-04-27T23:46:22.238Z,49.40
2023-04-27T23:48:49.184Z,49.50
2023-04-27T23:51:16.621Z,49.60
2023-04-27T23:53:46.590Z,49.50
2023-04-27T23:56:18.101Z,49.60
2023-04-27T23:58:48.264Z,49.60
